Moy, United Kingdom
Current Conditions -  °F | °C
As of 6:20 PM on Thursday 29 Jan 2015 (Local Time) from EGAA Reporting Station
Scattered Clouds Scattered Clouds  
Wind Chill: 29°   Ceiling: Unl
Heat Index: 34°   Visibility: 6mi
Dew Point: 34°   Wind: 6mph
Humidity: 100%   Direction: 250°WSW
Pressure: 28.85"   Gusts: NA
Location:  54.45°N, 6.67°W
Report Text: EGAA 291820Z 25005KT 9999 SCT003 SCT013 01/01 Q0977 RESN R99/6903//
Loading
Personal Weather Stations






























Interactive Weather Map New forecast layout! Learn more

10-Day Weather Forecast

Advertisements
Track Severe Weather on mobile